createdAt,value
2023-06-17T00:01:28.169Z,69.88
2023-06-17T00:03:55.002Z,69.56
2023-06-17T00:06:21.844Z,69.80
2023-06-17T00:08:48.512Z,69.63
2023-06-17T00:11:15.235Z,69.28
2023-06-17T00:13:41.916Z,69.94
2023-06-17T00:16:10.363Z,69.78
2023-06-17T00:18:37.280Z,70.10
2023-06-17T00:21:03.987Z,70.08
2023-06-17T00:23:31.332Z,70.03
2023-06-17T00:25:58.447Z,70.84
2023-06-17T00:28:25.100Z,70.70
2023-06-17T00:30:51.767Z,70.86
2023-06-17T00:33:18.408Z,70.64
2023-06-17T00:35:45.104Z,70.56
2023-06-17T00:38:11.839Z,70.59
2023-06-17T00:40:38.576Z,70.29
2023-06-17T00:43:05.241Z,71.18
2023-06-17T00:45:39.731Z,70.45
2023-06-17T00:48:10.260Z,70.73
2023-06-17T00:50:37.843Z,71.08
2023-06-17T00:53:04.864Z,71.40
2023-06-17T00:55:33.774Z,71.39
2023-06-17T00:58:00.614Z,70.82
2023-06-17T01:00:27.339Z,71.02
2023-06-17T01:02:54.136Z,71.40
2023-06-17T01:05:20.818Z,71.59
2023-06-17T01:08:01.186Z,71.03
2023-06-17T01:10:43.091Z,71.36
2023-06-17T01:13:10.736Z,70.90
2023-06-17T01:15:37.569Z,71.22
2023-06-17T01:18:05.488Z,70.86
2023-06-17T01:20:37.468Z,70.72
2023-06-17T01:23:05.128Z,70.98
2023-06-17T01:25:33.026Z,70.56
2023-06-17T01:28:17.106Z,71.40
2023-06-17T01:30:50.184Z,71.19
2023-06-17T01:33:17.088Z,71.39
2023-06-17T01:36:36.424Z,70.79
2023-06-17T01:39:07.027Z,70.92
2023-06-17T01:41:46.763Z,70.97
2023-06-17T01:44:13.486Z,71.62
2023-06-17T01:46:40.644Z,71.02
2023-06-17T01:49:08.046Z,71.01
2023-06-17T01:51:34.791Z,70.79
2023-06-17T01:54:01.469Z,70.65
2023-06-17T01:56:28.513Z,70.67
2023-06-17T01:58:55.340Z,70.88
2023-06-17T02:01:22.301Z,70.67
2023-06-17T02:03:48.989Z,70.26
2023-06-17T02:06:15.828Z,70.50
2023-06-17T02:08:43.255Z,70.47
2023-06-17T02:11:10.025Z,70.68
2023-06-17T02:13:36.670Z,70.60
2023-06-17T02:16:03.810Z,71.09
2023-06-17T02:18:33.679Z,70.56
2023-06-17T02:21:03.488Z,70.64
2023-06-17T02:23:30.700Z,71.12
2023-06-17T02:25:58.497Z,70.91
2023-06-17T02:28:25.617Z,70.33
2023-06-17T02:30:52.324Z,70.91
2023-06-17T02:33:22.385Z,70.61
2023-06-17T02:35:49.569Z,70.32
2023-06-17T02:38:16.317Z,71.01
2023-06-17T02:40:42.979Z,71.11
2023-06-17T02:43:09.701Z,71.91
2023-06-17T02:45:36.429Z,71.49
2023-06-17T02:48:03.759Z,71.60
2023-06-17T02:50:30.505Z,71.85
2023-06-17T02:52:57.564Z,71.11
2023-06-17T02:55:24.431Z,70.95
2023-06-17T02:57:51.120Z,71.27
2023-06-17T03:00:18.521Z,71.58
2023-06-17T03:02:45.622Z,71.74
2023-06-17T03:05:13.967Z,71.69
2023-06-17T03:07:41.512Z,71.59
2023-06-17T03:10:09.206Z,71.61
2023-06-17T03:12:35.988Z,72.25
2023-06-17T03:15:02.709Z,71.18
2023-06-17T03:17:29.568Z,70.94
2023-06-17T03:19:58.348Z,71.16
2023-06-17T03:22:25.026Z,71.23
2023-06-17T03:24:52.208Z,71.32
2023-06-17T03:27:18.949Z,71.14
2023-06-17T03:29:45.684Z,70.66
2023-06-17T03:32:12.456Z,70.84
2023-06-17T03:34:39.141Z,70.89
2023-06-17T03:37:05.972Z,70.88
2023-06-17T03:39:32.640Z,70.79
2023-06-17T03:41:59.346Z,70.43
2023-06-17T03:44:26.181Z,70.59
2023-06-17T03:46:52.808Z,70.78
2023-06-17T03:49:19.498Z,70.23
2023-06-17T03:51:46.882Z,70.19
2023-06-17T03:54:13.581Z,70.07
2023-06-17T03:56:40.658Z,69.84
2023-06-17T03:59:07.275Z,69.81
2023-06-17T04:01:34.412Z,69.32
2023-06-17T04:04:01.219Z,69.42
2023-06-17T04:06:28.070Z,69.48
2023-06-17T04:08:55.331Z,69.46
2023-06-17T04:11:22.140Z,69.12
2023-06-17T04:13:48.841Z,69.50
2023-06-17T04:16:16.470Z,69.14
2023-06-17T04:18:43.288Z,69.05
2023-06-17T04:21:10.703Z,69.41
2023-06-17T04:23:37.411Z,69.41
2023-06-17T04:26:04.625Z,69.13
2023-06-17T04:28:33.478Z,69.35
2023-06-17T04:31:02.359Z,69.08
2023-06-17T04:33:31.908Z,69.05
2023-06-17T04:35:58.876Z,69.71
2023-06-17T04:38:25.896Z,69.07
2023-06-17T04:40:54.238Z,68.86
2023-06-17T04:43:24.314Z,68.51
2023-06-17T04:45:51.643Z,67.98
2023-06-17T04:48:18.324Z,67.34
2023-06-17T04:50:45.009Z,66.99
2023-06-17T04:53:12.936Z,66.87
2023-06-17T04:55:39.712Z,66.37
2023-06-17T04:58:06.590Z,65.89
2023-06-17T05:00:33.244Z,65.97
2023-06-17T05:02:59.975Z,64.77
2023-06-17T05:05:26.773Z,64.17
2023-06-17T05:07:53.424Z,62.65
2023-06-17T05:10:20.315Z,63.08
2023-06-17T05:12:47.267Z,62.07
2023-06-17T05:15:13.952Z,61.13
2023-06-17T05:17:43.363Z,61.90
2023-06-17T05:20:11.609Z,62.40
2023-06-17T05:22:38.545Z,62.25
2023-06-17T05:25:05.782Z,62.51
2023-06-17T05:27:32.451Z,62.29
2023-06-17T05:29:59.218Z,62.08
2023-06-17T05:32:26.555Z,62.54
2023-06-17T05:34:53.447Z,62.67
2023-06-17T05:37:20.127Z,63.20
2023-06-17T05:39:47.031Z,63.18
2023-06-17T05:42:13.726Z,63.43
2023-06-17T05:44:41.224Z,64.19
2023-06-17T05:47:08.092Z,64.12
2023-06-17T05:49:34.813Z,64.84
2023-06-17T05:52:01.563Z,64.95
2023-06-17T05:54:28.283Z,64.76
2023-06-17T05:56:55.014Z,64.86
2023-06-17T05:59:21.938Z,65.07
2023-06-17T06:01:48.888Z,64.88
2023-06-17T06:04:15.797Z,64.59
2023-06-17T06:06:42.624Z,65.03
2023-06-17T06:09:09.394Z,65.87
2023-06-17T06:11:36.398Z,65.64
2023-06-17T06:14:03.268Z,65.04
2023-06-17T06:16:29.991Z,64.97
2023-06-17T06:18:56.734Z,63.04
2023-06-17T06:21:23.401Z,59.70
2023-06-17T06:23:50.551Z,54.41
2023-06-17T06:26:17.300Z,52.23
2023-06-17T06:28:44.169Z,51.80
2023-06-17T06:31:11.957Z,48.49
2023-06-17T06:33:38.768Z,45.93
2023-06-17T06:36:05.531Z,45.98
2023-06-17T06:38:32.190Z,44.60
2023-06-17T06:40:58.903Z,43.19
2023-06-17T06:43:25.692Z,44.47
2023-06-17T06:45:52.567Z,44.78
2023-06-17T06:48:19.259Z,45.68
2023-06-17T06:50:45.947Z,45.99
2023-06-17T06:53:12.730Z,47.41
2023-06-17T06:55:39.402Z,48.10
2023-06-17T06:58:06.076Z,49.04
2023-06-17T07:00:32.838Z,49.78
2023-06-17T07:02:59.587Z,50.83
2023-06-17T07:05:26.492Z,51.41
2023-06-17T07:07:53.183Z,51.37
2023-06-17T07:10:20.297Z,51.89
2023-06-17T07:12:47.330Z,51.63
2023-06-17T07:15:15.286Z,51.59
2023-06-17T07:17:42.333Z,52.24
2023-06-17T07:20:09.812Z,51.97
2023-06-17T07:22:36.567Z,52.62
2023-06-17T07:25:03.925Z,53.70
2023-06-17T07:27:30.601Z,53.63
2023-06-17T07:29:57.301Z,54.11
2023-06-17T07:32:38.938Z,55.29
2023-06-17T07:35:06.386Z,54.91
2023-06-17T07:37:33.047Z,55.45
2023-06-17T07:39:59.678Z,57.03
2023-06-17T07:42:26.344Z,57.30
2023-06-17T07:44:53.295Z,57.06
2023-06-17T07:47:20.119Z,56.92
2023-06-17T07:49:47.100Z,57.19
2023-06-17T07:52:13.796Z,57.85
2023-06-17T07:54:40.610Z,56.91
2023-06-17T07:57:07.329Z,57.00
2023-06-17T07:59:34.131Z,57.45
2023-06-17T08:02:00.887Z,55.96
2023-06-17T08:04:27.662Z,55.08
2023-06-17T08:06:54.340Z,54.99
2023-06-17T08:09:21.196Z,54.81
2023-06-17T08:11:49.165Z,54.34
2023-06-17T08:14:16.670Z,53.93
2023-06-17T08:16:44.228Z,53.55
2023-06-17T08:19:11.124Z,53.60
2023-06-17T08:21:38.445Z,53.60
2023-06-17T08:24:25.861Z,53.23
2023-06-17T08:26:53.416Z,52.55
2023-06-17T08:29:20.184Z,52.76
2023-06-17T08:31:52.223Z,53.05
2023-06-17T08:34:19.854Z,51.05
2023-06-17T08:36:50.828Z,50.99
2023-06-17T08:39:17.613Z,51.25
2023-06-17T08:41:44.425Z,52.03
2023-06-17T08:44:12.873Z,53.01
2023-06-17T08:46:40.344Z,52.89
2023-06-17T08:49:10.271Z,52.23
2023-06-17T08:51:37.034Z,53.34
2023-06-17T08:54:04.030Z,52.39
2023-06-17T08:56:30.747Z,52.78
2023-06-17T08:58:57.832Z,52.02
2023-06-17T09:01:24.925Z,50.20
2023-06-17T09:03:52.414Z,51.37
2023-06-17T09:06:22.764Z,49.07
2023-06-17T09:08:49.617Z,48.32
2023-06-17T09:11:16.313Z,48.05
2023-06-17T09:13:43.133Z,48.42
2023-06-17T09:16:09.921Z,47.66
2023-06-17T09:18:36.700Z,47.62
2023-06-17T09:21:03.920Z,47.82
2023-06-17T09:23:30.656Z,49.75
2023-06-17T09:26:04.311Z,48.68
2023-06-17T09:28:32.139Z,48.45
2023-06-17T09:31:00.761Z,49.15
2023-06-17T09:33:28.169Z,48.81
2023-06-17T09:36:02.154Z,48.22
2023-06-17T09:38:34.594Z,48.90
2023-06-17T09:41:01.387Z,48.28
2023-06-17T09:43:29.015Z,49.63
2023-06-17T09:46:02.866Z,47.16
2023-06-17T09:48:33.206Z,46.46
2023-06-17T09:51:00.241Z,44.64
2023-06-17T09:53:31.365Z,45.56
2023-06-17T09:56:00.190Z,45.56
2023-06-17T09:58:34.146Z,46.17
2023-06-17T10:01:02.266Z,46.72
2023-06-17T10:03:29.411Z,45.96
2023-06-17T10:06:00.916Z,43.71
2023-06-17T10:08:27.750Z,43.85
2023-06-17T10:10:54.426Z,43.99
2023-06-17T10:13:21.734Z,42.95
2023-06-17T10:15:48.656Z,43.42
2023-06-17T10:18:15.319Z,45.40
2023-06-17T10:20:42.080Z,47.16
2023-06-17T10:23:08.940Z,46.82
2023-06-17T10:25:36.978Z,48.20
2023-06-17T10:28:06.528Z,46.79
2023-06-17T10:30:35.527Z,45.74
2023-06-17T10:33:03.397Z,44.47
2023-06-17T10:35:55.069Z,43.69
2023-06-17T10:38:29.622Z,41.73
2023-06-17T10:40:58.116Z,42.70
2023-06-17T10:43:25.081Z,43.02
2023-06-17T10:45:58.365Z,43.50
2023-06-17T10:48:32.365Z,44.05
2023-06-17T10:51:03.557Z,44.86
2023-06-17T10:53:32.942Z,43.86
2023-06-17T10:56:00.794Z,43.73
2023-06-17T10:58:35.784Z,43.75
2023-06-17T11:01:06.746Z,42.20
2023-06-17T11:03:33.926Z,43.25
2023-06-17T11:06:05.058Z,44.04
2023-06-17T11:08:33.009Z,43.81
2023-06-17T11:11:09.717Z,45.47
2023-06-17T11:13:40.332Z,44.38
2023-06-17T11:16:10.641Z,44.63
2023-06-17T11:18:38.283Z,42.76
2023-06-17T11:21:05.316Z,43.17
2023-06-17T11:24:08.118Z,45.27
2023-06-17T11:26:35.369Z,42.49
2023-06-17T11:29:05.285Z,42.69
2023-06-17T11:31:39.520Z,40.12
2023-06-17T11:34:07.669Z,40.32
2023-06-17T11:36:37.341Z,41.79
2023-06-17T11:39:04.110Z,40.12
2023-06-17T11:41:30.893Z,39.85
2023-06-17T11:43:57.582Z,39.60
2023-06-17T11:46:24.958Z,39.11
2023-06-17T11:48:52.023Z,39.99
2023-06-17T11:51:19.276Z,39.87
2023-06-17T11:53:48.645Z,37.03
2023-06-17T11:56:21.415Z,38.90
2023-06-17T11:58:48.535Z,38.17
2023-06-17T12:01:15.266Z,36.42
2023-06-17T12:03:48.256Z,38.84
2023-06-17T12:06:21.724Z,39.75
2023-06-17T12:09:04.120Z,38.46
2023-06-17T12:11:36.922Z,37.38
2023-06-17T12:14:12.133Z,35.78
2023-06-17T12:16:41.030Z,37.52
2023-06-17T12:19:10.686Z,39.21
2023-06-17T12:21:40.264Z,38.79
2023-06-17T12:24:07.044Z,39.41
2023-06-17T12:26:33.757Z,39.78
2023-06-17T12:29:03.072Z,40.50
2023-06-17T12:31:35.770Z,40.88
2023-06-17T12:34:03.418Z,41.00
2023-06-17T12:36:30.074Z,41.63
2023-06-17T12:38:57.801Z,41.92
2023-06-17T12:41:24.491Z,43.00
2023-06-17T12:43:51.749Z,45.17
2023-06-17T12:46:18.596Z,43.49
2023-06-17T12:48:45.344Z,41.60
2023-06-17T12:51:13.017Z,42.00
2023-06-17T12:53:41.495Z,42.46
2023-06-17T12:56:08.232Z,42.05
2023-06-17T12:58:34.918Z,41.58
2023-06-17T13:01:02.487Z,41.23
2023-06-17T13:03:29.279Z,41.06
2023-06-17T13:05:55.970Z,41.89
2023-06-17T13:08:22.694Z,42.58
2023-06-17T13:10:49.428Z,43.81
2023-06-17T13:13:16.136Z,43.57
2023-06-17T13:15:43.142Z,43.13
2023-06-17T13:18:10.077Z,41.96
2023-06-17T13:20:36.900Z,43.14
2023-06-17T13:23:03.787Z,42.78
2023-06-17T13:25:30.496Z,41.97
2023-06-17T13:27:57.506Z,41.97
2023-06-17T13:30:24.589Z,42.23
2023-06-17T13:32:51.752Z,44.08
2023-06-17T13:35:18.934Z,44.58
2023-06-17T13:37:46.593Z,44.09
2023-06-17T13:40:13.406Z,42.03
2023-06-17T13:42:40.142Z,42.33
2023-06-17T13:45:08.226Z,41.53
2023-06-17T13:47:35.128Z,42.69
2023-06-17T13:50:01.855Z,41.09
2023-06-17T13:52:28.683Z,42.20
2023-06-17T13:54:55.525Z,40.34
2023-06-17T13:57:23.204Z,38.58
2023-06-17T13:59:50.536Z,38.18
2023-06-17T14:02:17.328Z,39.75
2023-06-17T14:04:44.545Z,38.48
2023-06-17T14:07:11.322Z,38.28
2023-06-17T14:09:38.007Z,38.49
2023-06-17T14:12:06.409Z,38.97
2023-06-17T14:14:36.613Z,37.76
2023-06-17T14:17:05.579Z,37.98
2023-06-17T14:19:34.352Z,37.10
2023-06-17T14:22:01.739Z,36.72
2023-06-17T14:24:31.062Z,38.20
2023-06-17T14:27:30.182Z,38.02
2023-06-17T14:29:56.862Z,37.83
2023-06-17T14:32:23.651Z,37.77
2023-06-17T14:34:50.834Z,37.89
2023-06-17T14:37:18.326Z,37.49
2023-06-17T14:39:45.067Z,37.87
2023-06-17T14:42:13.059Z,38.02
2023-06-17T14:44:40.831Z,39.16
2023-06-17T14:47:08.068Z,39.80
2023-06-17T14:49:35.055Z,38.73
2023-06-17T14:52:01.909Z,38.43
2023-06-17T14:54:28.928Z,39.65
2023-06-17T14:56:56.507Z,40.04
2023-06-17T14:59:23.521Z,39.53
2023-06-17T15:01:50.250Z,40.40
2023-06-17T15:04:16.987Z,38.28
2023-06-17T15:06:43.909Z,38.33
2023-06-17T15:09:27.042Z,37.35
2023-06-17T15:11:54.999Z,39.86
2023-06-17T15:14:21.763Z,38.19
2023-06-17T15:16:48.713Z,38.03
2023-06-17T15:19:16.701Z,38.37
2023-06-17T15:21:43.729Z,38.59
2023-06-17T15:24:11.550Z,39.91
2023-06-17T15:26:38.306Z,40.10
2023-06-17T15:29:06.085Z,39.97
2023-06-17T15:31:33.578Z,39.49
2023-06-17T15:34:00.647Z,42.11
2023-06-17T15:36:27.925Z,42.56
2023-06-17T15:38:54.966Z,43.73
2023-06-17T15:41:21.756Z,43.96
2023-06-17T15:43:48.438Z,44.09
2023-06-17T15:46:15.115Z,45.05
2023-06-17T15:48:41.900Z,45.23
2023-06-17T15:51:08.569Z,45.31
2023-06-17T15:53:35.383Z,46.52
2023-06-17T15:56:02.306Z,46.97
2023-06-17T15:58:29.034Z,47.11
2023-06-17T16:00:55.728Z,47.39
2023-06-17T16:03:24.535Z,47.65
2023-06-17T16:05:51.249Z,47.69
2023-06-17T16:08:18.017Z,47.84
2023-06-17T16:10:44.775Z,48.66
2023-06-17T16:13:11.477Z,48.59
2023-06-17T16:15:38.244Z,49.01
2023-06-17T16:18:04.994Z,48.63
2023-06-17T16:20:31.746Z,48.71
2023-06-17T16:22:58.838Z,48.99
2023-06-17T16:25:49.890Z,49.50
2023-06-17T16:28:21.424Z,50.15
2023-06-17T16:30:48.218Z,50.24
2023-06-17T16:33:15.354Z,51.01
2023-06-17T16:35:42.152Z,53.86
2023-06-17T16:38:10.134Z,55.28
2023-06-17T16:40:36.867Z,56.35
2023-06-17T16:43:03.555Z,58.31
2023-06-17T16:45:30.244Z,59.57
2023-06-17T16:47:57.262Z,60.59
2023-06-17T16:50:24.525Z,61.18
2023-06-17T16:52:51.486Z,62.91
2023-06-17T16:55:18.231Z,64.14
2023-06-17T16:57:44.913Z,64.94
2023-06-17T17:00:12.867Z,65.24
2023-06-17T17:02:39.889Z,65.18
2023-06-17T17:05:07.235Z,64.73
2023-06-17T17:07:35.483Z,65.07
2023-06-17T17:10:02.529Z,65.25
2023-06-17T17:12:29.229Z,64.69
2023-06-17T17:14:56.699Z,65.95
2023-06-17T17:17:23.477Z,65.40
2023-06-17T17:19:50.598Z,65.80
2023-06-17T17:22:17.354Z,66.27
2023-06-17T17:24:44.605Z,66.59
2023-06-17T17:27:11.703Z,65.74
2023-06-17T17:29:38.409Z,66.41
2023-06-17T17:32:05.721Z,66.57
2023-06-17T17:34:32.636Z,67.27
2023-06-17T17:36:59.506Z,66.44
2023-06-17T17:39:26.526Z,66.73
2023-06-17T17:41:53.237Z,67.39
2023-06-17T17:44:20.068Z,67.09
2023-06-17T17:46:46.962Z,68.01
2023-06-17T17:49:13.695Z,67.52
2023-06-17T17:51:40.386Z,67.71
2023-06-17T17:54:07.164Z,68.15
2023-06-17T17:56:33.882Z,68.08
2023-06-17T17:59:01.120Z,68.91
2023-06-17T18:01:27.843Z,69.20
2023-06-17T18:03:54.628Z,68.60
2023-06-17T18:06:21.570Z,67.97
2023-06-17T18:08:48.215Z,68.11
2023-06-17T18:11:14.910Z,68.66
2023-06-17T18:13:41.697Z,68.78
2023-06-17T18:16:08.410Z,68.96
2023-06-17T18:18:35.326Z,68.87
2023-06-17T18:21:01.981Z,68.66
2023-06-17T18:23:28.676Z,69.88
2023-06-17T18:25:56.987Z,69.46
2023-06-17T18:28:23.685Z,69.44
2023-06-17T18:30:50.477Z,69.65
2023-06-17T18:33:17.340Z,69.79
2023-06-17T18:35:44.162Z,70.57
2023-06-17T18:38:10.820Z,70.47
2023-06-17T18:40:37.548Z,70.75
2023-06-17T18:43:04.295Z,70.36
2023-06-17T18:45:31.003Z,70.96
2023-06-17T18:47:57.816Z,70.89
2023-06-17T18:50:25.114Z,70.97
2023-06-17T18:52:52.100Z,71.27
2023-06-17T18:55:18.792Z,72.24
2023-06-17T18:57:45.596Z,71.85
2023-06-17T19:00:12.585Z,71.30
2023-06-17T19:02:39.385Z,71.85
2023-06-17T19:05:07.126Z,71.61
2023-06-17T19:07:33.985Z,72.04
2023-06-17T19:10:00.975Z,71.32
2023-06-17T19:12:31.156Z,71.66
2023-06-17T19:14:58.852Z,72.71
2023-06-17T19:17:26.737Z,72.43
2023-06-17T19:19:53.716Z,72.34
2023-06-17T19:22:20.462Z,72.52
2023-06-17T19:24:47.227Z,72.50
2023-06-17T19:27:14.041Z,72.46
2023-06-17T19:29:41.016Z,73.63
2023-06-17T19:32:07.842Z,73.57
2023-06-17T19:34:34.588Z,73.25
2023-06-17T19:37:01.461Z,73.43
2023-06-17T19:39:28.193Z,73.44
2023-06-17T19:41:54.890Z,73.61
2023-06-17T19:44:21.770Z,73.88
2023-06-17T19:46:48.828Z,74.12
2023-06-17T19:49:15.969Z,74.32
2023-06-17T19:51:42.959Z,74.57
2023-06-17T19:54:09.650Z,75.17
2023-06-17T19:56:36.693Z,75.32
2023-06-17T19:59:03.574Z,76.55
2023-06-17T20:01:30.546Z,75.83
2023-06-17T20:03:57.372Z,75.80
2023-06-17T20:06:26.497Z,75.40
2023-06-17T20:08:53.830Z,76.78
2023-06-17T20:11:25.600Z,75.69
2023-06-17T20:13:52.849Z,75.65
2023-06-17T20:16:19.596Z,74.82
2023-06-17T20:18:46.406Z,74.70
2023-06-17T20:21:13.213Z,74.81
2023-06-17T20:23:41.210Z,75.14
2023-06-17T20:26:08.262Z,75.01
2023-06-17T20:28:35.263Z,75.00
2023-06-17T20:31:02.125Z,75.10
2023-06-17T20:33:28.770Z,75.19
2023-06-17T20:35:55.513Z,75.59
2023-06-17T20:38:22.636Z,75.27
2023-06-17T20:40:50.073Z,75.42
2023-06-17T20:43:16.969Z,75.42
2023-06-17T20:45:43.963Z,75.19
2023-06-17T20:48:10.781Z,75.69
2023-06-17T20:50:37.951Z,75.78
2023-06-17T20:53:04.679Z,75.87
2023-06-17T20:55:31.778Z,75.92
2023-06-17T20:57:58.649Z,75.75
2023-06-17T21:00:25.775Z,76.13
2023-06-17T21:02:52.552Z,75.84
2023-06-17T21:05:21.503Z,75.69
2023-06-17T21:07:48.339Z,75.57
2023-06-17T21:10:15.297Z,75.22
2023-06-17T21:12:42.326Z,75.33
2023-06-17T21:15:09.657Z,74.96
2023-06-17T21:17:36.423Z,75.28
2023-06-17T21:20:03.817Z,75.52
2023-06-17T21:22:30.558Z,75.60
2023-06-17T21:24:57.445Z,75.26
2023-06-17T21:27:24.465Z,75.16
2023-06-17T21:29:51.139Z,75.53
2023-06-17T21:32:17.793Z,75.56
2023-06-17T21:34:44.563Z,75.57
2023-06-17T21:37:11.308Z,75.36
2023-06-17T21:39:38.382Z,75.45
2023-06-17T21:42:05.479Z,75.48
2023-06-17T21:44:34.186Z,75.07
2023-06-17T21:47:01.282Z,75.44
2023-06-17T21:49:28.038Z,75.41
2023-06-17T21:51:55.373Z,75.22
2023-06-17T21:54:22.298Z,75.17
2023-06-17T21:56:49.003Z,75.18
2023-06-17T21:59:15.765Z,75.06
2023-06-17T22:01:42.562Z,74.85
2023-06-17T22:04:09.348Z,75.17
2023-06-17T22:06:36.202Z,74.97
2023-06-17T22:09:03.010Z,75.31
2023-06-17T22:11:30.280Z,75.42
2023-06-17T22:13:57.039Z,75.73
2023-06-17T22:16:24.346Z,75.51
2023-06-17T22:18:51.712Z,75.07
2023-06-17T22:21:18.473Z,75.04
2023-06-17T22:23:45.214Z,75.33
2023-06-17T22:26:11.942Z,75.23
2023-06-17T22:28:52.720Z,75.77
2023-06-17T22:31:19.396Z,75.82
2023-06-17T22:33:46.480Z,75.52
2023-06-17T22:36:13.375Z,75.59
2023-06-17T22:38:40.089Z,75.68
2023-06-17T22:41:06.780Z,76.08
2023-06-17T22:43:33.566Z,75.93
2023-06-17T22:46:00.258Z,75.50
2023-06-17T22:48:27.260Z,75.62
2023-06-17T22:50:54.075Z,76.03
2023-06-17T22:53:23.241Z,75.76
2023-06-17T22:55:49.914Z,75.58
2023-06-17T22:58:16.636Z,75.88
2023-06-17T23:00:43.422Z,75.88
2023-06-17T23:03:10.199Z,75.92
2023-06-17T23:05:37.050Z,75.78
2023-06-17T23:08:04.619Z,75.70
2023-06-17T23:10:31.458Z,75.88
2023-06-17T23:12:58.434Z,75.64
2023-06-17T23:15:25.951Z,75.83
2023-06-17T23:17:52.687Z,75.57
2023-06-17T23:20:20.092Z,75.46
2023-06-17T23:22:46.995Z,75.45
2023-06-17T23:25:17.158Z,75.93
2023-06-17T23:27:44.602Z,75.71
2023-06-17T23:30:12.916Z,75.65
2023-06-17T23:32:40.771Z,75.22
2023-06-17T23:35:07.665Z,75.59
2023-06-17T23:37:34.319Z,75.67
2023-06-17T23:40:00.957Z,75.05
2023-06-17T23:42:27.647Z,75.59
2023-06-17T23:44:54.319Z,75.52
2023-06-17T23:47:21.458Z,75.25
2023-06-17T23:49:48.853Z,74.63
2023-06-17T23:52:15.714Z,75.04
2023-06-17T23:54:42.524Z,75.04
2023-06-17T23:57:09.301Z,75.08
